Hlavní strana
METAR-TAF:

METAR-TAF

Letiště :

Mezinárodní letiště Sunan

Pchjongjang, Severní Korea

zeměpisná šířka: 39-02N, zeměpisná délka: 125-47E, výška: 36 m

METAR: chybějící

Čas: 07:42 (23:12 UTC)

Předpověď počasí

Zpráva byla vytvořena před 18 hodinami a 52 minutami, v 04:20 UTC
Předpověď platná od 13 v 06 UTC do 14 v 06 UTC
Severoseverozápadní vítr 14 kt
Viditelnost 10 km a více
Žádná oblačnost pod 1500 m, nevyskytují se cumulonimby.

TAF: ZKPY 130420Z 1306/1406 34007MPS CAVOK TX00/1306Z TNM16/1322Z

Stav a předpovědi počasí z více než 4 000 letišť (zprávy METAR a TAF).

Červené a žluté tečky na mapě představují dostupné meteorologické stanice.

Když kurzor umístíte na tečku, zobrazí se název stanice.

Pak kliknutím zobrazíte stav a předpověď počasí.

Chcete-li změnit mapu, kliknutím na zelené tlačítko se znaménkem +mapu přiblížíte, kliknutím na zelené tlačítko se znaménkem – mapu oddálíte a kliknutím na zelené šipky přejdete na sousední mapy.


METAR-TAF: